Time;durP1;ratioP1;P1;durP2;ratioP2;P2;SDS_P1;SDS_P2;PMS_P1;PMS_P2;Temp;Humidity;BMP_temperature;BMP_pressure;BME280_temperature;BME280_humidity;BME280_pressure;Samples;Min_cycle;Max_cycle;Signal;HPM_P1;HPM_P2
2021/05/23 00:02:13;;;;;;;4.27;4.07;;;13.10;99.90;;;;;;5072496;28;20411;-92
2021/05/23 00:04:39;;;;;;;4.03;3.83;;;13.10;99.90;;;;;;5073481;28;20767;-90
2021/05/23 00:07:07;;;;;;;4.87;4.17;;;13.10;99.90;;;;;;5073600;28;20407;-90
2021/05/23 00:09:33;;;;;;;4.80;4.50;;;13.10;99.90;;;;;;5074077;28;20560;-91
2021/05/23 00:12:00;;;;;;;4.70;4.30;;;13.20;99.90;;;;;;5072357;28;20468;-91
2021/05/23 00:14:29;;;;;;;5.70;5.30;;;13.20;99.90;;;;;;5072787;28;20599;-91
2021/05/23 00:16:55;;;;;;;4.30;4.00;;;13.20;99.90;;;;;;5072029;28;20456;-92
2021/05/23 00:19:24;;;;;;;4.90;4.60;;;13.20;99.90;;;;;;5056140;28;20419;-91
2021/05/23 00:21:49;;;;;;;5.43;4.97;;;13.20;99.90;;;;;;5072473;28;20710;-91
2021/05/23 00:24:18;;;;;;;4.67;4.37;;;13.20;99.90;;;;;;5071558;28;20233;-91
2021/05/23 00:26:44;;;;;;;5.23;4.80;;;13.30;99.90;;;;;;5072566;28;20471;-90
2021/05/23 00:29:10;;;;;;;6.43;5.10;;;13.20;99.90;;;;;;5071954;28;20474;-91
2021/05/23 00:31:40;;;;;;;4.63;4.30;;;13.10;99.90;;;;;;5073482;28;20412;-90
2021/05/23 00:34:06;;;;;;;4.43;4.23;;;13.10;99.90;;;;;;5072227;28;20460;-92
2021/05/23 00:36:33;;;;;;;6.07;4.60;;;13.10;99.90;;;;;;5073806;28;20812;-92
2021/05/23 00:38:59;;;;;;;5.40;4.90;;;13.00;99.90;;;;;;5072075;28;20591;-92
2021/05/23 00:41:24;;;;;;;6.83;4.97;;;13.00;99.90;;;;;;5073528;28;20448;-91
2021/05/23 00:43:50;;;;;;;5.70;5.20;;;13.00;99.90;;;;;;5073315;28;20508;-91
2021/05/23 00:46:16;;;;;;;4.97;4.47;;;13.00;99.90;;;;;;5071664;28;20245;-91
2021/05/23 00:48:42;;;;;;;5.07;4.60;;;13.10;99.90;;;;;;5071789;28;20204;-91
2021/05/23 00:51:08;;;;;;;4.60;4.30;;;13.10;99.90;;;;;;5072768;28;20211;-92
2021/05/23 00:53:34;;;;;;;4.50;4.20;;;13.10;99.90;;;;;;5071891;28;20174;-91
2021/05/23 00:56:04;;;;;;;4.83;4.20;;;13.10;99.90;;;;;;5071619;28;20292;-91
2021/05/23 00:58:33;;;;;;;5.43;4.90;;;13.10;99.90;;;;;;5072118;28;20399;-91
2021/05/23 01:01:01;;;;;;;4.90;4.50;;;13.10;99.90;;;;;;5072773;28;20898;-92
2021/05/23 01:03:27;;;;;;;4.30;4.10;;;13.10;99.90;;;;;;5071892;28;20409;-90
2021/05/23 01:06:04;;;;;;;4.00;3.80;;;13.20;99.90;;;;;;5073947;28;20422;-91
2021/05/23 01:08:34;;;;;;;5.53;4.50;;;13.10;99.90;;;;;;5077823;28;20466;-92
2021/05/23 01:11:16;;;;;;;4.30;4.00;;;13.20;99.90;;;;;;5084970;28;20426;-90
2021/05/23 01:13:57;;;;;;;4.73;4.43;;;13.10;99.90;;;;;;5084287;28;20431;-90
2021/05/23 01:16:29;;;;;;;4.20;4.00;;;13.20;99.90;;;;;;5083399;28;20404;-90
2021/05/23 01:19:09;;;;;;;4.97;4.70;;;13.20;99.90;;;;;;5075872;28;20829;-89
2021/05/23 01:21:40;;;;;;;4.30;4.00;;;13.20;99.90;;;;;;5075207;28;20772;-92
2021/05/23 01:24:35;;;;;;;3.97;3.77;;;13.20;99.90;;;;;;5076511;28;20462;-91
2021/05/23 01:27:06;;;;;;;4.33;4.03;;;13.20;99.90;;;;;;5043126;28;20502;-91
2021/05/23 01:29:33;;;;;;;4.63;4.43;;;13.20;99.90;;;;;;5071594;28;20458;-90
2021/05/23 01:31:59;;;;;;;4.17;3.87;;;13.20;99.90;;;;;;5071242;28;20417;-93
2021/05/23 01:34:25;;;;;;;4.30;3.80;;;13.20;99.90;;;;;;5071453;28;20422;-89
2021/05/23 01:36:55;;;;;;;3.90;3.70;;;13.20;99.90;;;;;;5071332;28;20418;-89
2021/05/23 01:39:22;;;;;;;4.00;3.80;;;13.20;99.90;;;;;;5070960;28;20401;-89
2021/05/23 01:41:49;;;;;;;5.23;3.70;;;13.10;99.90;;;;;;5071131;28;20416;-88
2021/05/23 01:44:17;;;;;;;3.53;3.33;;;13.20;99.90;;;;;;5070415;28;20895;-91
2021/05/23 01:46:43;;;;;;;4.27;3.97;;;13.20;99.90;;;;;;5071409;28;20422;-91
2021/05/23 01:49:09;;;;;;;3.60;3.47;;;13.20;99.90;;;;;;5071986;28;20452;-91
2021/05/23 01:51:35;;;;;;;4.27;3.97;;;13.20;99.90;;;;;;5072211;28;20409;-91
2021/05/23 01:54:01;;;;;;;4.40;4.20;;;13.20;99.90;;;;;;5070849;28;20417;-91
2021/05/23 01:56:28;;;;;;;4.30;4.10;;;13.20;99.90;;;;;;5071360;28;20481;-90
2021/05/23 01:58:53;;;;;;;3.47;3.27;;;13.20;99.90;;;;;;5072423;28;20403;-91
2021/05/23 02:01:20;;;;;;;6.07;3.87;;;13.20;99.90;;;;;;5070847;28;20920;-91
2021/05/23 02:03:46;;;;;;;4.00;3.70;;;13.20;99.90;;;;;;5072410;28;20750;-90
2021/05/23 02:06:13;;;;;;;3.67;3.47;;;13.20;99.90;;;;;;5071749;28;20444;-91
2021/05/23 02:08:40;;;;;;;4.10;3.80;;;13.20;99.90;;;;;;5071215;28;20458;-91
2021/05/23 02:11:09;;;;;;;4.37;3.97;;;13.20;99.90;;;;;;5071687;28;20498;-91
2021/05/23 02:13:36;;;;;;;4.33;4.00;;;13.20;99.90;;;;;;5072203;28;20419;-91
2021/05/23 02:16:03;;;;;;;4.40;4.10;;;13.20;99.90;;;;;;5070401;28;20487;-91
2021/05/23 02:18:33;;;;;;;3.80;3.60;;;13.30;99.90;;;;;;5071099;28;20746;-91
2021/05/23 02:20:59;;;;;;;3.97;3.77;;;13.30;99.90;;;;;;5072187;28;20408;-90
2021/05/23 02:23:24;;;;;;;4.03;3.83;;;13.30;99.90;;;;;;5070451;28;20414;-90
2021/05/23 02:25:53;;;;;;;3.70;3.60;;;13.30;99.90;;;;;;5053516;28;20629;-91
2021/05/23 02:28:20;;;;;;;3.87;3.60;;;13.30;99.90;;;;;;5037187;28;20424;-90
2021/05/23 02:30:51;;;;;;;4.20;4.00;;;13.30;99.90;;;;;;5055741;28;20459;-90
2021/05/23 02:33:21;;;;;;;3.93;3.73;;;13.30;99.90;;;;;;5037528;28;20423;-92
2021/05/23 02:35:50;;;;;;;4.77;4.47;;;13.30;99.90;;;;;;5037740;28;20424;-88
2021/05/23 02:38:18;;;;;;;4.37;4.17;;;13.30;99.90;;;;;;5037219;28;20492;-88
2021/05/23 02:40:45;;;;;;;4.77;4.47;;;13.20;99.90;;;;;;5055597;28;20416;-88
2021/05/23 02:43:12;;;;;;;5.20;4.80;;;13.20;99.90;;;;;;5055308;28;20427;-88
2021/05/23 02:45:38;;;;;;;5.33;4.83;;;13.20;99.90;;;;;;5038206;28;20407;-88
2021/05/23 02:48:09;;;;;;;5.80;5.40;;;13.20;99.90;;;;;;5054953;28;20464;-90
2021/05/23 02:50:38;;;;;;;5.30;5.00;;;13.20;99.90;;;;;;5055326;28;20452;-90
2021/05/23 02:53:08;;;;;;;5.10;4.80;;;13.20;99.90;;;;;;5036883;28;20401;-92
2021/05/23 02:55:38;;;;;;;5.30;4.90;;;13.20;99.90;;;;;;5036983;28;20423;-90
2021/05/23 02:58:08;;;;;;;5.23;4.93;;;13.20;99.90;;;;;;5036979;28;20415;-93
2021/05/23 03:00:37;;;;;;;4.60;4.40;;;13.20;99.90;;;;;;5037199;28;20425;-90
2021/05/23 03:03:03;;;;;;;5.03;4.73;;;13.20;99.90;;;;;;5037458;28;20413;-90
2021/05/23 03:05:29;;;;;;;5.53;5.23;;;13.10;99.90;;;;;;5037355;28;20405;-90
2021/05/23 03:07:56;;;;;;;5.80;5.50;;;13.10;99.90;;;;;;5037188;28;20411;-90
2021/05/23 03:10:23;;;;;;;5.60;5.20;;;13.00;99.90;;;;;;5054251;28;20453;-90
2021/05/23 03:12:49;;;;;;;6.50;5.90;;;13.00;99.90;;;;;;5037041;28;20413;-90
2021/05/23 03:15:22;;;;;;;5.70;5.20;;;13.00;99.90;;;;;;5036597;28;20890;-90
2021/05/23 03:17:48;;;;;;;6.83;5.93;;;13.00;99.90;;;;;;5037010;28;20403;-89
2021/05/23 03:20:15;;;;;;;6.87;6.10;;;12.90;99.90;;;;;;5054139;28;20414;-90
2021/05/23 03:22:42;;;;;;;6.33;5.93;;;13.00;99.90;;;;;;5036953;28;20531;-89
2021/05/23 03:25:12;;;;;;;7.03;6.60;;;13.00;99.90;;;;;;5053645;28;20460;-90
2021/05/23 03:27:41;;;;;;;6.83;6.33;;;12.90;99.90;;;;;;5036581;28;20446;-89
2021/05/23 03:30:12;;;;;;;6.83;6.40;;;12.90;99.90;;;;;;5053828;28;20512;-90
2021/05/23 03:32:38;;;;;;;7.63;6.97;;;12.90;99.90;;;;;;5054508;28;20411;-90
2021/05/23 03:35:05;;;;;;;7.27;6.70;;;12.90;99.90;;;;;;5054419;28;20412;-90
2021/05/23 03:37:31;;;;;;;6.73;6.27;;;12.90;99.90;;;;;;5036303;28;20407;-90
2021/05/23 03:39:57;;;;;;;8.50;7.80;;;12.90;99.90;;;;;;5035770;28;20419;-89
2021/05/23 03:42:23;;;;;;;7.40;6.90;;;12.90;99.90;;;;;;5035947;28;20413;-90
2021/05/23 03:44:51;;;;;;;8.03;7.53;;;12.90;99.90;;;;;;5054157;28;20184;-90
2021/05/23 03:47:17;;;;;;;8.03;7.37;;;12.90;99.90;;;;;;5035697;28;20222;-90
2021/05/23 03:49:43;;;;;;;6.87;6.40;;;12.90;99.90;;;;;;5036213;28;20458;-89
2021/05/23 03:52:10;;;;;;;7.90;7.30;;;12.90;99.90;;;;;;5053557;28;20771;-90
2021/05/23 03:54:36;;;;;;;7.90;7.40;;;13.00;99.90;;;;;;5036083;28;20189;-90
2021/05/23 03:57:03;;;;;;;7.33;6.83;;;12.90;99.90;;;;;;5036133;28;20458;-90
2021/05/23 03:59:29;;;;;;;9.13;8.43;;;12.90;99.90;;;;;;5053291;28;20444;-90
2021/05/23 04:01:55;;;;;;;7.17;6.67;;;12.90;99.90;;;;;;5019493;28;20797;-90
2021/05/23 04:04:22;;;;;;;7.23;6.73;;;12.90;99.90;;;;;;5053356;28;20179;-91
2021/05/23 04:06:49;;;;;;;7.33;6.73;;;13.00;99.90;;;;;;5036158;28;20180;-89
2021/05/23 04:09:18;;;;;;;6.90;6.53;;;13.00;99.90;;;;;;5035468;28;20470;-89
2021/05/23 04:11:47;;;;;;;6.87;6.47;;;13.00;99.90;;;;;;5035829;28;20545;-89
2021/05/23 04:14:13;;;;;;;6.43;6.10;;;13.00;99.90;;;;;;5052988;28;20406;-89
2021/05/23 04:16:40;;;;;;;6.20;5.90;;;12.90;99.90;;;;;;5035837;28;20930;-88
2021/05/23 04:19:05;;;;;;;6.60;6.20;;;12.90;99.90;;;;;;5019212;28;20560;-88
2021/05/23 04:21:31;;;;;;;6.53;6.03;;;12.90;99.90;;;;;;5052904;28;20491;-88
2021/05/23 04:23:57;;;;;;;7.10;6.50;;;13.00;99.90;;;;;;5035350;28;20180;-88
2021/05/23 04:26:23;;;;;;;6.60;6.27;;;13.00;99.90;;;;;;5035447;28;20503;-89
2021/05/23 04:28:49;;;;;;;7.30;6.80;;;13.00;99.90;;;;;;5053334;28;20486;-91
2021/05/23 04:31:15;;;;;;;6.23;5.83;;;13.00;99.90;;;;;;5035284;28;20437;-90
2021/05/23 04:33:40;;;;;;;8.83;8.13;;;13.00;99.90;;;;;;5053360;28;20231;-90
2021/05/23 04:36:06;;;;;;;7.03;6.57;;;13.10;99.90;;;;;;5035590;28;20407;-90
2021/05/23 04:38:32;;;;;;;7.80;7.30;;;13.10;99.90;;;;;;5035019;28;20518;-88
2021/05/23 04:40:58;;;;;;;7.57;7.07;;;13.00;99.90;;;;;;5035396;28;20178;-88
2021/05/23 04:43:24;;;;;;;8.20;7.50;;;13.00;99.90;;;;;;5034847;28;20648;-91
2021/05/23 04:45:49;;;;;;;7.20;6.80;;;13.10;99.90;;;;;;5035408;28;20251;-92
2021/05/23 04:48:16;;;;;;;8.73;8.00;;;13.10;99.90;;;;;;5052664;28;20404;-89
2021/05/23 04:50:42;;;;;;;7.87;7.37;;;13.10;99.90;;;;;;5018324;28;20261;-89
2021/05/23 04:53:08;;;;;;;8.10;7.50;;;13.10;99.90;;;;;;5018671;28;20499;-89
2021/05/23 04:55:34;;;;;;;8.60;7.90;;;13.00;99.90;;;;;;5034613;28;20512;-89
2021/05/23 04:58:03;;;;;;;8.43;7.83;;;13.00;99.90;;;;;;5035215;28;20511;-89
2021/05/23 05:00:29;;;;;;;7.97;7.47;;;13.00;99.90;;;;;;5034831;28;20408;-92
2021/05/23 05:02:56;;;;;;;9.10;8.40;;;13.00;99.90;;;;;;5053076;28;20411;-91
2021/05/23 05:05:22;;;;;;;8.20;7.70;;;13.00;99.90;;;;;;5034768;28;20698;-92
2021/05/23 05:07:48;;;;;;;8.20;7.60;;;12.90;99.90;;;;;;5034931;28;20497;-92
2021/05/23 05:10:15;;;;;;;9.17;8.47;;;12.90;99.90;;;;;;5034804;28;21009;-91
2021/05/23 05:12:44;;;;;;;8.70;8.00;;;12.90;99.90;;;;;;5019394;28;20418;-91
2021/05/23 05:15:10;;;;;;;8.47;7.77;;;12.90;99.90;;;;;;5035057;28;20441;-92
2021/05/23 05:17:39;;;;;;;7.73;7.13;;;12.90;99.90;;;;;;5034817;28;20692;-90
2021/05/23 05:20:09;;;;;;;7.50;7.00;;;13.00;99.90;;;;;;5035421;28;20415;-90
2021/05/23 05:22:41;;;;;;;9.90;8.80;;;12.90;99.90;;;;;;5034219;28;20401;-91
2021/05/23 05:25:08;;;;;;;7.33;6.83;;;13.00;99.90;;;;;;5055905;28;20884;-90
2021/05/23 05:27:34;;;;;;;7.63;7.03;;;13.00;99.90;;;;;;5072290;28;20930;-91
2021/05/23 05:30:00;;;;;;;8.03;7.43;;;13.00;99.90;;;;;;5071363;28;20455;-90
2021/05/23 05:32:25;;;;;;;8.20;7.47;;;13.00;99.90;;;;;;5070631;28;20410;-91
2021/05/23 05:34:51;;;;;;;7.93;7.33;;;13.10;99.90;;;;;;5071232;28;20435;-91
2021/05/23 05:37:17;;;;;;;8.53;7.93;;;13.10;99.90;;;;;;5070966;28;20573;-91
2021/05/23 05:39:43;;;;;;;8.67;8.07;;;13.10;99.90;;;;;;5072515;28;20170;-90
2021/05/23 05:42:09;;;;;;;8.10;7.50;;;13.10;99.90;;;;;;5071398;28;20410;-91
2021/05/23 05:44:35;;;;;;;9.07;8.37;;;13.10;99.90;;;;;;5072118;28;20422;-91
2021/05/23 05:47:01;;;;;;;8.97;8.27;;;13.10;99.90;;;;;;5071353;28;20176;-91
2021/05/23 05:49:27;;;;;;;8.47;7.77;;;13.10;99.90;;;;;;5070906;28;20722;-91
2021/05/23 05:51:52;;;;;;;9.70;8.93;;;13.20;99.90;;;;;;5071206;28;20500;-91
2021/05/23 05:54:18;;;;;;;10.20;9.30;;;13.20;99.90;;;;;;5072123;28;20407;-91
2021/05/23 05:56:46;;;;;;;9.50;8.80;;;13.20;99.90;;;;;;5071320;28;20798;-91
2021/05/23 05:59:12;;;;;;;10.13;9.37;;;13.30;99.90;;;;;;5072356;28;20646;-91
2021/05/23 06:01:38;;;;;;;9.80;9.10;;;13.30;99.90;;;;;;5072625;28;20410;-90
2021/05/23 06:04:04;;;;;;;10.37;9.47;;;13.40;99.90;;;;;;5076194;28;20212;-90
2021/05/23 06:06:29;;;;;;;10.40;9.50;;;13.30;99.90;;;;;;5074523;28;20188;-89
2021/05/23 06:08:55;;;;;;;9.83;9.03;;;13.30;99.90;;;;;;5076073;28;20454;-89
2021/05/23 06:11:21;;;;;;;10.57;9.73;;;13.30;99.90;;;;;;5074620;28;20211;-89
2021/05/23 06:13:47;;;;;;;11.57;10.67;;;13.30;99.90;;;;;;5074342;28;20412;-89
2021/05/23 06:16:13;;;;;;;9.00;8.17;;;13.30;99.90;;;;;;5074757;28;20456;-89
2021/05/23 06:18:41;;;;;;;9.60;8.80;;;13.20;99.90;;;;;;5075407;28;20634;-89
2021/05/23 06:21:06;;;;;;;8.90;8.10;;;13.20;99.90;;;;;;5075761;28;20193;-88
2021/05/23 06:23:32;;;;;;;7.90;7.10;;;13.20;99.90;;;;;;5075201;28;20442;-88
2021/05/23 06:25:58;;;;;;;8.30;7.70;;;13.20;99.90;;;;;;5074401;28;20229;-89
2021/05/23 06:28:24;;;;;;;7.73;7.13;;;13.10;99.90;;;;;;5074040;28;20702;-89
2021/05/23 06:30:50;;;;;;;7.90;7.40;;;13.00;99.90;;;;;;5075670;28;20473;-89
2021/05/23 06:33:16;;;;;;;8.23;7.50;;;12.90;99.90;;;;;;5075629;28;20172;-89
2021/05/23 06:35:42;;;;;;;7.43;6.90;;;12.80;99.90;;;;;;5074443;28;20241;-89
2021/05/23 06:38:07;;;;;;;8.17;7.37;;;12.80;99.90;;;;;;5074632;28;20883;-89
2021/05/23 06:40:38;;;;;;;7.23;6.83;;;12.70;99.90;;;;;;5073822;28;20183;-89
2021/05/23 06:43:04;;;;;;;8.00;7.20;;;12.70;99.90;;;;;;5075394;28;20487;-89
2021/05/23 06:45:30;;;;;;;7.83;7.13;;;12.50;99.90;;;;;;5074861;28;20423;-88
2021/05/23 06:47:56;;;;;;;7.83;7.13;;;12.50;99.90;;;;;;5075525;28;20169;-89
2021/05/23 06:50:21;;;;;;;7.27;6.57;;;12.60;99.90;;;;;;5074729;28;20226;-89
2021/05/23 06:52:50;;;;;;;7.20;6.50;;;12.60;99.90;;;;;;5074143;28;20222;-89
2021/05/23 06:55:20;;;;;;;6.47;5.63;;;12.60;99.90;;;;;;5074653;28;20173;-94
2021/05/23 06:57:46;;;;;;;7.03;6.37;;;12.60;99.90;;;;;;5074098;28;20421;-90
2021/05/23 07:00:13;;;;;;;5.43;5.13;;;12.60;99.90;;;;;;5074150;28;20415;-90
2021/05/23 07:02:39;;;;;;;5.40;5.00;;;12.60;99.90;;;;;;5073567;28;20221;-89
2021/05/23 07:05:05;;;;;;;5.70;5.30;;;12.60;99.90;;;;;;5073916;28;20402;-91
2021/05/23 07:07:34;;;;;;;5.27;4.87;;;12.60;99.90;;;;;;5074996;28;20189;-89
2021/05/23 07:10:00;;;;;;;5.20;4.90;;;12.60;99.90;;;;;;5074146;28;20461;-89
2021/05/23 07:12:25;;;;;;;5.60;5.10;;;12.60;99.90;;;;;;5075577;28;20422;-90
2021/05/23 07:14:51;;;;;;;5.73;5.17;;;12.60;99.90;;;;;;5076529;28;20267;-89
2021/05/23 07:17:17;;;;;;;5.83;5.27;;;12.60;99.90;;;;;;5080956;28;20244;-89
2021/05/23 07:19:43;;;;;;;6.00;5.50;;;12.60;99.90;;;;;;5084525;28;20172;-90
2021/05/23 07:22:09;;;;;;;5.70;5.10;;;12.60;99.90;;;;;;5083008;28;20172;-90
2021/05/23 07:24:34;;;;;;;5.63;5.30;;;12.60;99.90;;;;;;5066958;28;20958;-90
2021/05/23 07:27:00;;;;;;;5.83;5.33;;;12.50;99.90;;;;;;5055832;28;20267;-91
2021/05/23 07:29:26;;;;;;;5.80;5.40;;;12.50;99.90;;;;;;5060312;28;20249;-89
2021/05/23 07:31:51;;;;;;;5.70;5.30;;;12.30;99.90;;;;;;5041255;28;20173;-89
2021/05/23 07:34:17;;;;;;;5.80;5.50;;;12.40;99.90;;;;;;5037728;28;20234;-89
2021/05/23 07:36:43;;;;;;;5.80;5.30;;;12.40;99.90;;;;;;5036657;28;20614;-89
2021/05/23 07:39:10;;;;;;;6.67;5.23;;;12.40;99.90;;;;;;5036982;28;20565;-90
2021/05/23 07:41:35;;;;;;;6.23;5.83;;;12.40;99.90;;;;;;5054060;28;20179;-89
2021/05/23 07:44:01;;;;;;;6.90;6.40;;;12.40;99.90;;;;;;5054528;28;20412;-89
2021/05/23 07:46:27;;;;;;;7.00;5.80;;;12.40;99.90;;;;;;5036331;28;20175;-89
2021/05/23 07:48:53;;;;;;;6.90;6.40;;;12.50;99.90;;;;;;5036526;28;20465;-89
2021/05/23 07:51:19;;;;;;;6.60;6.10;;;12.60;99.90;;;;;;5036500;28;20177;-90
2021/05/23 07:53:45;;;;;;;6.77;6.13;;;12.70;99.90;;;;;;5053782;28;20424;-91
2021/05/23 07:56:13;;;;;;;6.90;6.40;;;12.90;99.90;;;;;;5037632;28;20182;-91
2021/05/23 07:58:39;;;;;;;6.40;5.90;;;13.00;99.90;;;;;;5036699;28;20178;-91
2021/05/23 08:01:05;;;;;;;7.10;6.60;;;12.90;99.90;;;;;;5048877;28;20403;-90
2021/05/23 08:03:31;;;;;;;6.23;5.80;;;13.00;99.90;;;;;;5071265;28;20420;-91
2021/05/23 08:05:56;;;;;;;5.40;5.10;;;13.00;99.90;;;;;;5054172;28;20418;-90
2021/05/23 08:08:23;;;;;;;6.73;6.43;;;13.20;99.90;;;;;;5053197;28;20164;-93
2021/05/23 08:10:51;;;;;;;6.37;5.97;;;13.20;99.90;;;;;;5043401;28;20661;-90
2021/05/23 08:13:22;;;;;;;5.73;5.17;;;13.30;99.90;;;;;;5054178;28;20446;-91
2021/05/23 08:15:51;;;;;;;6.77;5.17;;;13.40;99.90;;;;;;5036115;28;20467;-91
2021/05/23 08:18:19;;;;;;;6.00;4.37;;;13.50;99.90;;;;;;5036326;28;20900;-91
2021/05/23 08:20:47;;;;;;;4.93;4.63;;;13.60;99.90;;;;;;5035678;28;20408;-91
2021/05/23 08:23:13;;;;;;;8.63;4.03;;;13.70;99.50;;;;;;5035706;28;20893;-91
2021/05/23 08:25:42;;;;;;;6.50;4.80;;;13.70;99.50;;;;;;5049305;28;20461;-90
2021/05/23 08:28:07;;;;;;;5.00;3.80;;;13.80;99.00;;;;;;5073891;28;20426;-91
2021/05/23 08:30:33;;;;;;;6.03;4.40;;;14.00;98.30;;;;;;5072356;28;20220;-91
2021/05/23 08:32:59;;;;;;;3.57;3.37;;;14.00;98.10;;;;;;5072582;28;20182;-90
2021/05/23 08:35:25;;;;;;;5.03;3.17;;;14.10;96.50;;;;;;5071302;28;20438;-91
2021/05/23 08:37:51;;;;;;;3.53;3.23;;;14.20;96.60;;;;;;5073765;28;20232;-91
2021/05/23 08:40:17;;;;;;;4.33;2.90;;;14.50;97.00;;;;;;5073827;28;20202;-91
2021/05/23 08:42:44;;;;;;;2.90;2.70;;;14.60;97.00;;;;;;5072115;28;20179;-90
2021/05/23 08:45:12;;;;;;;2.30;2.20;;;14.80;95.40;;;;;;5072097;28;20427;-90
2021/05/23 08:47:46;;;;;;;3.30;2.50;;;15.00;95.00;;;;;;5071599;28;20764;-91
2021/05/23 08:50:22;;;;;;;3.10;2.60;;;15.20;93.40;;;;;;5072304;28;20473;-90
2021/05/23 08:52:57;;;;;;;3.40;3.10;;;15.40;93.70;;;;;;5072374;28;20450;-80
2021/05/23 08:55:25;;;;;;;4.30;2.73;;;15.60;96.20;;;;;;5072385;28;20412;-80
2021/05/23 08:57:55;;;;;;;3.03;2.83;;;15.90;94.30;;;;;;5072940;28;20428;-88
2021/05/23 09:00:22;;;;;;;3.07;2.87;;;15.90;90.00;;;;;;5071655;28;20501;-87
2021/05/23 09:03:03;;;;;;;3.57;3.17;;;16.00;91.50;;;;;;5071034;28;20418;-88
2021/05/23 09:05:34;;;;;;;3.43;2.73;;;16.00;90.30;;;;;;5071059;28;20803;-88
2021/05/23 09:08:03;;;;;;;3.20;2.97;;;16.10;88.30;;;;;;5071750;28;20403;-87
2021/05/23 09:10:34;;;;;;;5.03;4.60;;;16.20;88.70;;;;;;5072326;28;20816;-89
2021/05/23 09:13:00;;;;;;;6.33;5.00;;;16.20;88.50;;;;;;5071828;28;20477;-88
2021/05/23 09:15:27;;;;;;;6.93;4.63;;;16.30;90.90;;;;;;5072347;28;20791;-90
2021/05/23 09:18:00;;;;;;;2.90;2.53;;;16.50;89.50;;;;;;5057168;28;20409;-89
2021/05/23 09:20:26;;;;;;;7.60;6.10;;;16.60;86.60;;;;;;5052035;28;20761;-91
2021/05/23 09:22:52;;;;;;;3.30;3.10;;;16.50;87.10;;;;;;5051863;28;20405;-88
2021/05/23 09:25:36;;;;;;;4.87;2.63;;;16.60;85.00;;;;;;5052412;28;20460;-89
2021/05/23 09:28:03;;;;;;;4.37;2.63;;;16.20;80.00;;;;;;5053572;28;20451;-89
2021/05/23 09:30:33;;;;;;;3.03;2.37;;;16.10;82.80;;;;;;5052647;28;20960;-89
2021/05/23 09:32:59;;;;;;;5.83;5.33;;;16.00;81.40;;;;;;5052217;28;20409;-89
2021/05/23 09:35:28;;;;;;;6.30;5.40;;;16.10;87.10;;;;;;5054787;28;20499;-87
2021/05/23 09:38:04;;;;;;;6.13;5.53;;;16.30;85.30;;;;;;5055635;28;20413;-88
2021/05/23 09:40:48;;;;;;;4.00;2.50;;;16.40;81.70;;;;;;5055349;28;20858;-89
2021/05/23 09:43:20;;;;;;;7.03;5.40;;;16.40;81.30;;;;;;5055489;28;20431;-89
2021/05/23 09:45:51;;;;;;;11.67;9.13;;;16.50;83.20;;;;;;5054643;28;20406;-90
2021/05/23 09:48:20;;;;;;;4.07;3.53;;;16.50;82.10;;;;;;5055387;28;20410;-90
2021/05/23 09:50:49;;;;;;;9.40;8.27;;;16.50;84.30;;;;;;5054433;28;20462;-88
2021/05/23 09:53:17;;;;;;;15.00;7.37;;;16.40;82.80;;;;;;5055117;28;20406;-87
2021/05/23 09:56:11;;;;;;;4.43;4.03;;;16.30;82.10;;;;;;5055670;28;20414;-88
2021/05/23 09:58:42;;;;;;;5.83;5.30;;;16.30;81.60;;;;;;5050862;28;20455;-89
2021/05/23 10:01:11;;;;;;;7.73;6.40;;;16.20;82.10;;;;;;5055224;28;20407;-89
2021/05/23 10:03:40;;;;;;;8.63;6.73;;;16.40;82.60;;;;;;5054522;28;20467;-89
2021/05/23 10:06:07;;;;;;;6.57;5.70;;;16.50;81.50;;;;;;5054941;28;20418;-89
2021/05/23 10:08:33;;;;;;;5.43;4.63;;;16.60;81.20;;;;;;5054690;28;20438;-91
2021/05/23 10:10:59;;;;;;;3.20;2.90;;;16.80;79.20;;;;;;5056030;28;20443;-90
2021/05/23 10:13:26;;;;;;;6.83;3.17;;;16.90;81.80;;;;;;5054773;28;20421;-89
2021/05/23 10:15:53;;;;;;;6.90;6.30;;;16.90;78.50;;;;;;5054063;28;20407;-88
2021/05/23 10:18:31;;;;;;;3.70;3.40;;;16.80;78.20;;;;;;5054720;28;20417;-88
2021/05/23 10:20:58;;;;;;;3.20;2.77;;;16.80;76.00;;;;;;5054613;28;20437;-88
2021/05/23 10:23:36;;;;;;;4.77;4.03;;;16.90;78.00;;;;;;5055573;28;20430;-86
2021/05/23 10:26:08;;;;;;;3.67;2.60;;;17.00;77.60;;;;;;5054346;28;20458;-79
2021/05/23 10:28:45;;;;;;;31.33;23.23;;;17.10;73.80;;;;;;5054998;28;20752;-81
2021/05/23 10:31:11;;;;;;;3.40;3.10;;;16.80;74.20;;;;;;5055546;28;20413;-80
2021/05/23 10:33:49;;;;;;;13.20;11.43;;;16.40;71.80;;;;;;5053705;28;20397;-81
2021/05/23 10:36:14;;;;;;;14.53;12.00;;;16.30;75.20;;;;;;5054349;28;20450;-80
2021/05/23 10:38:40;;;;;;;8.13;6.17;;;16.20;77.10;;;;;;5053318;28;20404;-81
2021/05/23 10:41:06;;;;;;;13.57;10.53;;;16.40;76.60;;;;;;5055231;28;20179;-81
2021/05/23 10:43:34;;;;;;;5.20;4.50;;;16.60;77.90;;;;;;5053228;28;20207;-82
2021/05/23 10:46:17;;;;;;;5.73;4.30;;;16.50;74.70;;;;;;5055251;28;20254;-80
2021/05/23 10:48:58;;;;;;;2.53;2.43;;;16.40;74.70;;;;;;5053682;28;20440;-81
2021/05/23 10:51:24;;;;;;;3.80;2.80;;;16.10;74.30;;;;;;5055176;28;20807;-80
2021/05/23 10:53:51;;;;;;;8.73;3.83;;;16.30;77.50;;;;;;5054032;28;20412;-81
2021/05/23 10:56:22;;;;;;;3.00;2.80;;;16.60;79.00;;;;;;5053872;28;20457;-80
2021/05/23 10:59:03;;;;;;;4.10;3.13;;;16.70;73.90;;;;;;5054394;28;20878;-81
2021/05/23 11:01:39;;;;;;;4.67;4.23;;;16.60;71.00;;;;;;5053750;28;20398;-80
2021/05/23 11:04:17;;;;;;;5.90;4.20;;;16.60;78.30;;;;;;5053743;28;20447;-81
2021/05/23 11:06:47;;;;;;;4.17;2.87;;;16.60;75.40;;;;;;5054291;28;20389;-81
2021/05/23 11:09:15;;;;;;;3.10;2.90;;;16.70;75.50;;;;;;5053526;28;20532;-80
2021/05/23 11:11:43;;;;;;;4.60;4.00;;;17.00;75.60;;;;;;5052900;28;20412;-81
2021/05/23 11:14:21;;;;;;;3.03;2.90;;;17.10;74.30;;;;;;5054688;28;20418;-80
2021/05/23 11:16:55;;;;;;;3.23;3.00;;;17.10;71.60;;;;;;5052663;28;20400;-81
2021/05/23 11:19:22;;;;;;;3.03;2.67;;;17.10;73.50;;;;;;5053389;28;20404;-81
2021/05/23 11:21:53;;;;;;;4.13;3.30;;;17.00;67.50;;;;;;5054003;28;20411;-81
2021/05/23 11:24:29;;;;;;;4.30;3.63;;;17.20;67.30;;;;;;5052886;28;20455;-81
2021/05/23 11:26:56;;;;;;;3.73;3.53;;;17.40;72.80;;;;;;5052688;28;20980;-80
2021/05/23 11:29:25;;;;;;;2.60;2.40;;;17.60;66.00;;;;;;5053159;28;20451;-80
2021/05/23 11:31:51;;;;;;;3.10;2.90;;;17.60;64.00;;;;;;5035920;28;20750;-81
2021/05/23 11:34:20;;;;;;;4.57;2.80;;;17.40;63.70;;;;;;5053133;28;20573;-80
2021/05/23 11:36:47;;;;;;;259.57;162.33;;;17.60;67.70;;;;;;5053678;28;20412;-80
2021/05/23 11:39:17;;;;;;;35.30;26.37;;;17.80;64.70;;;;;;5054258;28;20482;-80
2021/05/23 11:41:48;;;;;;;9.15;8.05;;;17.80;66.90;;;;;;5051530;28;20427;-80
2021/05/23 11:44:15;;;;;;;4.10;3.80;;;17.80;66.00;;;;;;5053005;28;20181;-80
2021/05/23 11:46:43;;;;;;;8.23;6.03;;;17.80;63.10;;;;;;5052253;28;20763;-81
2021/05/23 11:49:26;;;;;;;3.30;3.10;;;17.80;66.40;;;;;;5035947;28;20460;-80
2021/05/23 11:51:57;;;;;;;2.40;2.30;;;17.90;63.10;;;;;;5053469;28;20400;-80
2021/05/23 11:54:23;;;;;;;2.63;2.43;;;17.50;59.80;;;;;;5052592;28;20432;-80
2021/05/23 11:56:49;;;;;;;2.83;2.63;;;17.20;59.40;;;;;;5052155;28;20917;-80
2021/05/23 11:59:14;;;;;;;3.60;3.30;;;16.90;62.50;;;;;;5052870;28;20188;-80
2021/05/23 12:01:52;;;;;;;2.83;2.73;;;17.00;66.30;;;;;;5053167;28;20182;-81
2021/05/23 12:04:18;;;;;;;3.27;3.07;;;17.20;68.90;;;;;;5053773;28;20157;-81
2021/05/23 12:06:51;;;;;;;4.67;2.80;;;17.30;66.90;;;;;;5053109;28;20448;-80
2021/05/23 12:09:28;;;;;;;2.90;2.80;;;17.60;67.60;;;;;;5035826;28;20560;-80
2021/05/23 12:11:58;;;;;;;2.67;2.33;;;17.80;65.00;;;;;;5051850;28;20418;-80
2021/05/23 12:14:38;;;;;;;2.60;2.40;;;17.80;62.70;;;;;;5035674;28;20448;-80
2021/05/23 12:17:12;;;;;;;3.20;3.00;;;17.80;62.70;;;;;;5052344;28;20412;-80
2021/05/23 12:22:16;;;;;;;2.93;2.80;;;17.70;62.80;;;;;;5051696;28;20506;-81
2021/05/23 12:24:42;;;;;;;48.93;33.70;;;17.80;66.50;;;;;;5050638;28;20456;-81
2021/05/23 12:27:08;;;;;;;11.77;9.40;;;17.80;65.00;;;;;;5052748;28;20502;-80
2021/05/23 12:29:34;;;;;;;4.20;3.63;;;17.80;65.20;;;;;;5052822;28;20209;-80
2021/05/23 12:32:04;;;;;;;6.70;6.10;;;17.70;63.70;;;;;;5052627;28;20754;-80
2021/05/23 12:34:32;;;;;;;3.90;3.70;;;17.80;65.20;;;;;;5053177;28;20619;-80
2021/05/23 12:37:01;;;;;;;4.90;4.00;;;18.00;64.00;;;;;;5052517;28;20408;-81
2021/05/23 12:39:27;;;;;;;4.70;4.30;;;18.10;62.70;;;;;;5051910;28;20404;-80
2021/05/23 12:41:54;;;;;;;4.00;3.63;;;18.10;62.10;;;;;;5051142;28;20416;-80
2021/05/23 12:44:24;;;;;;;3.90;3.57;;;18.30;65.40;;;;;;5051791;28;20419;-82
2021/05/23 12:46:51;;;;;;;6.03;5.53;;;18.40;66.10;;;;;;5051180;28;20876;-81
2021/05/23 12:49:19;;;;;;;4.87;4.57;;;18.50;60.40;;;;;;5052819;28;20478;-81
2021/05/23 12:51:48;;;;;;;8.00;5.00;;;18.60;61.20;;;;;;5051054;28;20415;-81
2021/05/23 12:54:24;;;;;;;4.50;3.93;;;18.50;59.10;;;;;;5052724;28;20916;-81